Time;durP1;ratioP1;P1;durP2;ratioP2;P2;SDS_P1;SDS_P2;PMS_P1;PMS_P2;Temp;Humidity;BMP_temperature;BMP_pressure;BME280_temperature;BME280_humidity;BME280_pressure;Samples;Min_cycle;Max_cycle;Signal;HPM_P1;HPM_P2
2022/09/16 00:01:22;;;;;;;3.83;0.90;;;;;;;;;;5033398;28;20091;-53
2022/09/16 00:03:56;;;;;;;3.70;1.73;;;;;;;;;;5032832;28;20053;-53
2022/09/16 00:06:25;;;;;;;3.97;1.23;;;;;;;;;;5032632;28;20049;-54
2022/09/16 00:11:36;;;;;;;2.97;1.13;;;;;;;;;;5032975;28;20071;-51
2022/09/16 00:14:03;;;;;;;2.38;0.52;;;;;;;;;;5032554;28;20462;-52
2022/09/16 00:16:40;;;;;;;4.60;0.73;;;;;;;;;;5032263;28;20062;-54
2022/09/16 00:19:12;;;;;;;3.95;1.10;;;;;;;;;;5033012;28;20049;-51
2022/09/16 00:21:41;;;;;;;2.75;0.82;;;;;;;;;;5032362;28;20049;-51
2022/09/16 00:24:12;;;;;;;15.13;5.68;;;;;;;;;;5032321;28;20053;-52
2022/09/16 00:26:42;;;;;;;5.40;1.55;;;;;;;;;;5032740;28;20063;-51
2022/09/16 00:29:09;;;;;;;8.27;4.00;;;;;;;;;;5019103;28;20053;-54
2022/09/16 00:31:46;;;;;;;4.78;1.45;;;;;;;;;;5032782;28;20061;-54
2022/09/16 00:34:13;;;;;;;5.90;2.15;;;;;;;;;;5019051;28;20060;-51
2022/09/16 00:36:39;;;;;;;11.27;3.33;;;;;;;;;;5032318;28;20056;-52
2022/09/16 00:39:08;;;;;;;8.70;2.35;;;;;;;;;;5032742;28;20042;-54
2022/09/16 00:41:37;;;;;;;5.22;2.72;;;;;;;;;;5040865;28;20148;-51
2022/09/16 00:44:08;;;;;;;5.93;2.20;;;;;;;;;;5032590;28;20049;-52
2022/09/16 00:46:36;;;;;;;7.22;3.25;;;;;;;;;;5032688;28;20136;-51
2022/09/16 00:49:23;;;;;;;5.13;1.73;;;;;;;;;;5032471;28;20061;-51
2022/09/16 00:51:50;;;;;;;9.43;1.60;;;;;;;;;;5032685;28;20053;-52
2022/09/16 00:54:19;;;;;;;26.42;10.25;;;;;;;;;;5033972;28;20049;-53
2022/09/16 00:56:47;;;;;;;6.93;2.40;;;;;;;;;;5032268;28;20474;-54
2022/09/16 00:59:18;;;;;;;8.98;2.88;;;;;;;;;;5038408;28;20048;-54
2022/09/16 01:01:46;;;;;;;8.88;2.55;;;;;;;;;;5031744;28;20060;-54
2022/09/16 01:04:22;;;;;;;5.43;1.08;;;;;;;;;;5031408;28;20059;-50
2022/09/16 01:06:51;;;;;;;8.43;3.45;;;;;;;;;;5032099;28;20050;-51
2022/09/16 01:09:22;;;;;;;7.60;2.05;;;;;;;;;;5034547;28;20095;-53
2022/09/16 01:11:51;;;;;;;4.68;1.65;;;;;;;;;;5035967;28;20452;-52
2022/09/16 01:17:07;;;;;;;5.25;1.05;;;;;;;;;;5053315;28;20191;-56
2022/09/16 01:19:50;;;;;;;3.25;0.90;;;;;;;;;;5050792;28;20064;-52
2022/09/16 01:22:28;;;;;;;4.63;0.73;;;;;;;;;;5036044;28;20049;-51
2022/09/16 01:25:00;;;;;;;0.90;0.50;;;;;;;;;;5046808;28;20053;-53
2022/09/16 01:27:45;;;;;;;2.50;0.60;;;;;;;;;;5035471;28;20057;-55
2022/09/16 01:30:18;;;;;;;1.75;0.50;;;;;;;;;;5035207;28;20461;-56
2022/09/16 01:33:00;;;;;;;2.90;0.75;;;;;;;;;;5045803;28;20053;-53
2022/09/16 01:35:34;;;;;;;1.45;0.60;;;;;;;;;;5035596;28;20077;-54
2022/09/16 01:38:11;;;;;;;8.05;0.77;;;;;;;;;;5035389;28;20057;-54
2022/09/16 01:40:43;;;;;;;3.47;0.68;;;;;;;;;;5046852;28;20048;-56
2022/09/16 01:43:17;;;;;;;3.13;0.70;;;;;;;;;;5035770;28;20064;-53
2022/09/16 01:45:48;;;;;;;6.30;1.17;;;;;;;;;;5035293;28;20077;-56
2022/09/16 01:48:22;;;;;;;4.65;1.20;;;;;;;;;;5038107;28;20703;-54
2022/09/16 01:50:55;;;;;;;5.72;1.00;;;;;;;;;;5043291;28;20158;-55
2022/09/16 01:53:32;;;;;;;2.60;0.85;;;;;;;;;;5040302;28;20057;-54
2022/09/16 01:56:00;;;;;;;5.95;0.90;;;;;;;;;;5034853;28;20499;-54
2022/09/16 01:58:32;;;;;;;4.68;0.82;;;;;;;;;;5036608;28;20459;-54
2022/09/16 02:01:03;;;;;;;6.82;1.10;;;;;;;;;;5043629;28;20049;-55
2022/09/16 02:03:37;;;;;;;2.63;0.60;;;;;;;;;;5034590;28;20049;-52
2022/09/16 02:06:07;;;;;;;3.35;0.80;;;;;;;;;;5034584;28;20045;-56
2022/09/16 02:08:35;;;;;;;3.50;1.00;;;;;;;;;;5034654;28;20046;-53
2022/09/16 02:11:08;;;;;;;5.35;0.90;;;;;;;;;;5034735;28;20060;-55
2022/09/16 02:13:40;;;;;;;4.57;1.17;;;;;;;;;;5034861;28;20057;-54
2022/09/16 02:16:12;;;;;;;4.13;0.80;;;;;;;;;;5034615;28;20053;-55
2022/09/16 02:18:43;;;;;;;3.53;0.60;;;;;;;;;;5034722;28;20124;-52
2022/09/16 02:21:16;;;;;;;7.20;0.90;;;;;;;;;;5033825;28;20080;-52
2022/09/16 02:23:44;;;;;;;6.00;0.75;;;;;;;;;;5036152;28;20077;-54
2022/09/16 02:26:14;;;;;;;5.97;1.00;;;;;;;;;;5034667;28;20068;-53
2022/09/16 02:28:42;;;;;;;1.92;0.82;;;;;;;;;;5034564;28;20061;-53
2022/09/16 02:31:09;;;;;;;4.45;0.80;;;;;;;;;;5034554;28;20053;-56
2022/09/16 02:33:39;;;;;;;3.45;0.80;;;;;;;;;;5034597;28;20053;-53
2022/09/16 02:36:10;;;;;;;7.15;0.90;;;;;;;;;;5034424;28;20065;-53
2022/09/16 02:38:41;;;;;;;5.18;1.20;;;;;;;;;;5034406;28;20041;-53
2022/09/16 02:41:13;;;;;;;4.03;0.60;;;;;;;;;;5044560;28;20060;-52
2022/09/16 02:43:42;;;;;;;4.47;1.42;;;;;;;;;;5034385;28;20057;-53
2022/09/16 02:46:13;;;;;;;2.53;0.52;;;;;;;;;;5034074;28;20045;-53
2022/09/16 02:48:43;;;;;;;4.25;0.73;;;;;;;;;;5034219;28;20056;-53
2022/09/16 02:51:18;;;;;;;4.90;1.08;;;;;;;;;;5033996;28;20045;-52
2022/09/16 02:53:48;;;;;;;3.08;0.75;;;;;;;;;;5037635;28;20045;-56
2022/09/16 02:56:18;;;;;;;2.95;0.85;;;;;;;;;;5033739;28;20056;-55
2022/09/16 02:58:45;;;;;;;3.78;0.77;;;;;;;;;;5038392;28;20041;-55
2022/09/16 03:01:21;;;;;;;4.63;0.93;;;;;;;;;;5037777;28;20056;-54
2022/09/16 03:03:49;;;;;;;4.57;1.20;;;;;;;;;;5034070;28;20057;-53
2022/09/16 03:06:21;;;;;;;4.95;0.93;;;;;;;;;;5033304;28;20386;-53
2022/09/16 03:08:57;;;;;;;7.65;1.10;;;;;;;;;;5033918;28;20061;-55
2022/09/16 03:11:29;;;;;;;3.65;0.70;;;;;;;;;;5033282;28;20057;-56
2022/09/16 03:14:08;;;;;;;3.83;0.90;;;;;;;;;;5033663;28;20063;-52
2022/09/16 03:16:43;;;;;;;3.40;0.75;;;;;;;;;;5032479;28;20057;-54
2022/09/16 03:19:15;;;;;;;4.50;0.90;;;;;;;;;;5033473;28;20049;-55
2022/09/16 03:21:56;;;;;;;4.13;0.70;;;;;;;;;;5033442;28;20049;-55
2022/09/16 03:24:31;;;;;;;3.45;0.90;;;;;;;;;;5046187;28;20049;-53
2022/09/16 03:27:06;;;;;;;3.88;0.68;;;;;;;;;;5032561;28;20111;-54
2022/09/16 03:29:35;;;;;;;3.63;0.80;;;;;;;;;;5033082;28;20049;-53
2022/09/16 03:32:07;;;;;;;1.95;0.50;;;;;;;;;;5033048;28;20063;-54
2022/09/16 03:34:38;;;;;;;4.72;0.70;;;;;;;;;;5020357;28;20049;-55
2022/09/16 03:37:13;;;;;;;6.95;1.10;;;;;;;;;;5033041;28;20049;-55
2022/09/16 03:39:41;;;;;;;5.25;0.80;;;;;;;;;;5033800;28;20044;-54
2022/09/16 03:42:10;;;;;;;6.28;1.30;;;;;;;;;;5040068;28;20049;-54
2022/09/16 03:44:38;;;;;;;5.40;0.93;;;;;;;;;;5033100;28;20072;-53
2022/09/16 03:47:08;;;;;;;5.28;0.70;;;;;;;;;;5033251;28;20053;-54
2022/09/16 03:49:36;;;;;;;7.00;1.02;;;;;;;;;;5033064;28;20041;-54
2022/09/16 03:52:07;;;;;;;2.10;0.77;;;;;;;;;;5033320;28;20049;-55
2022/09/16 03:54:36;;;;;;;7.18;0.90;;;;;;;;;;5035586;28;20058;-52
2022/09/16 03:57:03;;;;;;;6.82;1.10;;;;;;;;;;5033048;28;20057;-52
2022/09/16 03:59:32;;;;;;;5.03;0.70;;;;;;;;;;5041519;28;20053;-54
2022/09/16 04:02:00;;;;;;;3.95;0.80;;;;;;;;;;5032754;28;20053;-54
2022/09/16 04:04:26;;;;;;;7.47;1.15;;;;;;;;;;5032621;28;20049;-55
2022/09/16 04:06:54;;;;;;;3.80;0.95;;;;;;;;;;5032202;28;20050;-52
2022/09/16 04:09:21;;;;;;;5.85;0.93;;;;;;;;;;5032272;28;20045;-52
2022/09/16 04:11:54;;;;;;;5.43;1.05;;;;;;;;;;5032998;28;20159;-53
2022/09/16 04:14:23;;;;;;;6.80;1.27;;;;;;;;;;5033079;28;20065;-53
2022/09/16 04:16:49;;;;;;;5.18;0.95;;;;;;;;;;5032361;28;20436;-52
2022/09/16 04:19:19;;;;;;;6.90;0.90;;;;;;;;;;5032842;28;20056;-54
2022/09/16 04:21:47;;;;;;;6.55;1.00;;;;;;;;;;5036063;28;20053;-51
2022/09/16 04:24:14;;;;;;;3.03;0.98;;;;;;;;;;5045241;28;20053;-51
2022/09/16 04:26:45;;;;;;;5.65;0.90;;;;;;;;;;5033002;28;20060;-50
2022/09/16 04:29:16;;;;;;;4.60;1.20;;;;;;;;;;5032477;28;20049;-51
2022/09/16 04:31:43;;;;;;;5.18;0.80;;;;;;;;;;5032809;28;20049;-52
2022/09/16 04:34:13;;;;;;;4.30;0.98;;;;;;;;;;5032486;28;20053;-53
2022/09/16 04:36:40;;;;;;;3.35;0.65;;;;;;;;;;5032793;28;20057;-53
2022/09/16 04:39:09;;;;;;;8.82;0.85;;;;;;;;;;5032072;28;20057;-50
2022/09/16 04:41:36;;;;;;;5.00;1.20;;;;;;;;;;5042845;28;20053;-51
2022/09/16 04:44:04;;;;;;;4.05;1.15;;;;;;;;;;5035088;28;20068;-54
2022/09/16 04:46:34;;;;;;;7.00;1.23;;;;;;;;;;5036154;28;20042;-53
2022/09/16 04:49:02;;;;;;;5.13;0.80;;;;;;;;;;5036467;28;20053;-54
2022/09/16 04:51:33;;;;;;;8.45;0.90;;;;;;;;;;5036529;28;20096;-50
2022/09/16 04:54:03;;;;;;;4.47;1.00;;;;;;;;;;5039824;28;20056;-51
2022/09/16 04:56:32;;;;;;;4.15;1.35;;;;;;;;;;5035988;28;20447;-52
2022/09/16 04:59:01;;;;;;;5.65;1.08;;;;;;;;;;5042681;28;20064;-53
2022/09/16 05:01:29;;;;;;;5.22;1.05;;;;;;;;;;5037960;28;20053;-50
2022/09/16 05:04:07;;;;;;;6.53;0.80;;;;;;;;;;5036172;28;20049;-50
2022/09/16 05:06:36;;;;;;;9.98;1.40;;;;;;;;;;5035679;28;20302;-51
2022/09/16 05:09:04;;;;;;;3.28;0.55;;;;;;;;;;5035752;28;20053;-50
2022/09/16 05:11:35;;;;;;;5.93;1.05;;;;;;;;;;5036029;28;20076;-50
2022/09/16 05:14:03;;;;;;;3.35;1.23;;;;;;;;;;5036139;28;20077;-50
2022/09/16 05:16:32;;;;;;;3.88;1.33;;;;;;;;;;5035609;28;20053;-50
2022/09/16 05:19:12;;;;;;;6.60;1.30;;;;;;;;;;5035714;28;20160;-54
2022/09/16 05:21:40;;;;;;;4.80;1.45;;;;;;;;;;5039228;28;20044;-51
2022/09/16 05:24:08;;;;;;;4.63;0.65;;;;;;;;;;5048027;28;20046;-53
2022/09/16 05:26:37;;;;;;;3.00;0.98;;;;;;;;;;5035655;28;20064;-53
2022/09/16 05:29:06;;;;;;;3.55;0.93;;;;;;;;;;5035765;28;20053;-52
2022/09/16 05:31:36;;;;;;;3.78;0.80;;;;;;;;;;5035425;28;20060;-50
2022/09/16 05:34:07;;;;;;;5.75;1.10;;;;;;;;;;5035560;28;20049;-53
2022/09/16 05:36:36;;;;;;;11.20;1.58;;;;;;;;;;5035332;28;20069;-50
2022/09/16 05:39:03;;;;;;;7.93;1.15;;;;;;;;;;5035458;28;20053;-54
2022/09/16 05:41:31;;;;;;;8.77;1.40;;;;;;;;;;5045530;28;20476;-52
2022/09/16 05:43:59;;;;;;;2.17;0.95;;;;;;;;;;5035526;28;20058;-50
2022/09/16 05:46:28;;;;;;;9.45;1.15;;;;;;;;;;5035495;28;20049;-54
2022/09/16 05:48:59;;;;;;;5.60;1.10;;;;;;;;;;5034953;28;20507;-53
2022/09/16 05:51:40;;;;;;;6.43;1.10;;;;;;;;;;5035164;28;20050;-50
2022/09/16 05:54:09;;;;;;;5.47;1.55;;;;;;;;;;5038561;28;20466;-50
2022/09/16 05:56:38;;;;;;;6.18;0.93;;;;;;;;;;5021371;28;20128;-51
2022/09/16 05:59:05;;;;;;;4.25;1.15;;;;;;;;;;5041900;28;20053;-52
2022/09/16 06:01:36;;;;;;;7.68;1.05;;;;;;;;;;5026504;28;20046;-53
2022/09/16 06:04:05;;;;;;;4.93;1.00;;;;;;;;;;5024004;28;20054;-50
2022/09/16 06:06:34;;;;;;;5.10;1.00;;;;;;;;;;5028894;28;20049;-49
2022/09/16 06:09:05;;;;;;;5.40;1.00;;;;;;;;;;5027735;28;20060;-54
2022/09/16 06:11:34;;;;;;;5.72;0.95;;;;;;;;;;5029275;28;20068;-49
2022/09/16 06:14:01;;;;;;;4.65;0.75;;;;;;;;;;5032329;28;20057;-48
2022/09/16 06:16:30;;;;;;;6.47;0.93;;;;;;;;;;5044693;28;20063;-49
2022/09/16 06:18:57;;;;;;;5.60;1.00;;;;;;;;;;5037249;28;20111;-48
2022/09/16 06:21:23;;;;;;;10.32;1.02;;;;;;;;;;5027124;28;20045;-48
2022/09/16 06:23:54;;;;;;;8.93;1.00;;;;;;;;;;5039297;28;20046;-49
2022/09/16 06:26:21;;;;;;;6.10;1.40;;;;;;;;;;5045283;28;20137;-50
2022/09/16 06:28:50;;;;;;;10.55;1.48;;;;;;;;;;5043060;28;20057;-50
2022/09/16 06:31:17;;;;;;;9.07;1.33;;;;;;;;;;5033218;28;20057;-50
2022/09/16 06:33:49;;;;;;;6.53;1.38;;;;;;;;;;5040169;28;20064;-49
2022/09/16 06:36:18;;;;;;;7.70;1.52;;;;;;;;;;5039794;28;20057;-49
2022/09/16 06:38:48;;;;;;;5.03;0.82;;;;;;;;;;5035782;28;20053;-50
2022/09/16 06:41:16;;;;;;;9.05;1.42;;;;;;;;;;5043901;28;20045;-49
2022/09/16 06:43:46;;;;;;;7.75;1.35;;;;;;;;;;5033129;28;20064;-49
2022/09/16 06:46:15;;;;;;;6.93;1.15;;;;;;;;;;5028627;28;20072;-49
2022/09/16 06:48:45;;;;;;;4.43;1.00;;;;;;;;;;5042434;28;20107;-49
2022/09/16 06:51:15;;;;;;;6.15;1.05;;;;;;;;;;5032320;28;20056;-50
2022/09/16 06:53:45;;;;;;;4.47;0.73;;;;;;;;;;5034048;28;20049;-49
2022/09/16 06:56:17;;;;;;;9.73;1.45;;;;;;;;;;5030620;28;20061;-49
2022/09/16 06:58:47;;;;;;;3.88;0.60;;;;;;;;;;5040935;28;20041;-43
2022/09/16 07:01:17;;;;;;;6.97;0.80;;;;;;;;;;5036373;28;20049;-49
2022/09/16 07:03:46;;;;;;;7.95;0.85;;;;;;;;;;5033883;28;20088;-47
2022/09/16 07:06:16;;;;;;;10.35;1.15;;;;;;;;;;5029752;28;20145;-47
2022/09/16 07:08:43;;;;;;;4.43;1.08;;;;;;;;;;5031808;28;20654;-48
2022/09/16 07:11:24;;;;;;;10.45;1.00;;;;;;;;;;5041395;28;20048;-47
2022/09/16 07:13:54;;;;;;;10.80;1.30;;;;;;;;;;5033481;28;20523;-46
2022/09/16 07:16:22;;;;;;;7.80;1.38;;;;;;;;;;5036158;28;20641;-47
2022/09/16 07:18:52;;;;;;;5.53;1.10;;;;;;;;;;5022872;28;20049;-47
2022/09/16 07:21:20;;;;;;;5.85;0.77;;;;;;;;;;5041253;28;20053;-47
2022/09/16 07:23:49;;;;;;;12.88;1.55;;;;;;;;;;5046187;28;20053;-46
2022/09/16 07:26:18;;;;;;;6.07;1.70;;;;;;;;;;5024323;28;20518;-45
2022/09/16 07:28:46;;;;;;;9.63;0.85;;;;;;;;;;5028747;28;20048;-47
2022/09/16 07:31:24;;;;;;;5.32;0.70;;;;;;;;;;5026648;28;20351;-47
2022/09/16 07:33:50;;;;;;;4.88;1.05;;;;;;;;;;5032419;28;20138;-44
2022/09/16 07:36:17;;;;;;;3.70;0.93;;;;;;;;;;5042026;28;20057;-44
2022/09/16 07:38:44;;;;;;;8.35;1.30;;;;;;;;;;5040323;28;20044;-46
2022/09/16 07:41:11;;;;;;;4.32;1.48;;;;;;;;;;5032993;28;20046;-50
2022/09/16 07:43:39;;;;;;;12.48;1.35;;;;;;;;;;5025396;28;20347;-47
2022/09/16 07:46:08;;;;;;;7.70;1.20;;;;;;;;;;5028305;28;20057;-47
2022/09/16 07:48:38;;;;;;;9.73;1.75;;;;;;;;;;5029762;28;20052;-46
2022/09/16 07:51:08;;;;;;;6.88;1.13;;;;;;;;;;5029961;28;20119;-46
2022/09/16 07:53:35;;;;;;;7.68;1.30;;;;;;;;;;5032796;28;20049;-45
2022/09/16 07:56:04;;;;;;;6.35;0.95;;;;;;;;;;5031958;28;20054;-47
2022/09/16 07:58:33;;;;;;;16.77;2.83;;;;;;;;;;5028615;28;20457;-47
2022/09/16 08:00:59;;;;;;;10.15;1.48;;;;;;;;;;5024337;28;20045;-47
2022/09/16 08:03:26;;;;;;;7.20;1.23;;;;;;;;;;5031456;28;20067;-46
2022/09/16 08:06:02;;;;;;;13.32;1.52;;;;;;;;;;5027849;28;20045;-46
2022/09/16 08:08:39;;;;;;;9.40;1.35;;;;;;;;;;5024352;28;20053;-46
2022/09/16 08:11:06;;;;;;;4.85;0.73;;;;;;;;;;5042704;28;20446;-46
2022/09/16 08:13:34;;;;;;;5.25;0.98;;;;;;;;;;5029364;28;20056;-46
2022/09/16 08:16:03;;;;;;;3.92;1.00;;;;;;;;;;5031542;28;20052;-47
2022/09/16 08:18:31;;;;;;;11.52;1.23;;;;;;;;;;5034591;28;20045;-45
2022/09/16 08:21:12;;;;;;;6.40;1.40;;;;;;;;;;5042972;28;20085;-46
2022/09/16 08:23:41;;;;;;;5.40;0.88;;;;;;;;;;5048432;28;20447;-45
2022/09/16 08:26:10;;;;;;;8.65;1.10;;;;;;;;;;5044440;28;20057;-45
2022/09/16 08:28:38;;;;;;;10.57;1.30;;;;;;;;;;5032919;28;20132;-46
2022/09/16 08:31:08;;;;;;;17.13;2.20;;;;;;;;;;5034752;28;20626;-44
2022/09/16 08:33:38;;;;;;;5.97;1.00;;;;;;;;;;5047050;28;20052;-45
2022/09/16 08:36:14;;;;;;;4.28;0.88;;;;;;;;;;5046619;28;20115;-45
2022/09/16 08:38:40;;;;;;;11.57;2.20;;;;;;;;;;5031883;28;20044;-44
2022/09/16 08:41:14;;;;;;;10.15;2.15;;;;;;;;;;5046618;28;20057;-46
2022/09/16 08:43:51;;;;;;;8.57;1.00;;;;;;;;;;5035938;28;20053;-45
2022/09/16 08:46:22;;;;;;;7.90;1.30;;;;;;;;;;5031318;28;20060;-47
2022/09/16 08:48:55;;;;;;;8.23;1.55;;;;;;;;;;5032463;28;20382;-47
2022/09/16 08:51:27;;;;;;;8.15;1.02;;;;;;;;;;5035686;28;20045;-44
2022/09/16 08:53:59;;;;;;;4.70;1.08;;;;;;;;;;5035948;28;20136;-44
2022/09/16 08:56:28;;;;;;;8.43;0.93;;;;;;;;;;5035418;28;20436;-43
2022/09/16 08:59:09;;;;;;;13.70;1.52;;;;;;;;;;5036640;28;20046;-47
2022/09/16 09:01:46;;;;;;;4.30;0.90;;;;;;;;;;5027626;28;20050;-44
2022/09/16 09:04:14;;;;;;;6.13;0.98;;;;;;;;;;5024941;28;20513;-44
2022/09/16 09:06:55;;;;;;;15.32;1.60;;;;;;;;;;5023874;28;20052;-44
2022/09/16 09:09:31;;;;;;;8.30;0.88;;;;;;;;;;5028130;28;20045;-44
2022/09/16 09:12:05;;;;;;;5.53;0.68;;;;;;;;;;5040686;28;20042;-45
2022/09/16 09:14:46;;;;;;;3.75;0.68;;;;;;;;;;5036769;28;20052;-43
2022/09/16 09:17:18;;;;;;;7.60;1.10;;;;;;;;;;4917823;28;3468566;-44
2022/09/16 09:19:51;;;;;;;9.80;1.15;;;;;;;;;;5021997;28;20300;-44
2022/09/16 09:22:28;;;;;;;16.00;1.58;;;;;;;;;;5045859;28;20073;-45
2022/09/16 09:25:01;;;;;;;6.55;1.00;;;;;;;;;;5042446;28;20080;-46
2022/09/16 09:27:45;;;;;;;8.30;0.90;;;;;;;;;;5043183;28;20135;-45
2022/09/16 09:30:15;;;;;;;10.63;1.42;;;;;;;;;;5039535;28;20053;-45
2022/09/16 09:32:48;;;;;;;8.20;0.85;;;;;;;;;;5035726;28;20055;-48
2022/09/16 09:35:24;;;;;;;8.18;1.17;;;;;;;;;;5021343;28;20064;-45
2022/09/16 09:38:12;;;;;;;7.85;0.90;;;;;;;;;;5036811;28;20049;-47
2022/09/16 09:40:41;;;;;;;6.38;0.73;;;;;;;;;;5028036;28;20457;-46
2022/09/16 09:43:13;;;;;;;22.48;1.75;;;;;;;;;;5035034;28;20068;-45
2022/09/16 09:45:44;;;;;;;18.77;1.65;;;;;;;;;;5028756;28;20056;-45
2022/09/16 09:48:14;;;;;;;5.75;1.02;;;;;;;;;;5027590;28;20079;-44
2022/09/16 09:50:42;;;;;;;16.35;2.70;;;;;;;;;;5041619;28;20052;-48
2022/09/16 09:53:22;;;;;;;11.90;1.25;;;;;;;;;;5036413;28;20055;-47
2022/09/16 09:55:59;;;;;;;9.18;1.02;;;;;;;;;;5028580;28;20382;-47
2022/09/16 09:58:37;;;;;;;19.90;2.08;;;;;;;;;;5031221;28;20046;-48
2022/09/16 10:01:04;;;;;;;18.92;1.88;;;;;;;;;;5040118;28;20389;-47
2022/09/16 10:03:36;;;;;;;4.55;0.60;;;;;;;;;;5038149;28;20053;-49
2022/09/16 10:06:06;;;;;;;12.35;0.95;;;;;;;;;;5031804;28;20053;-49
2022/09/16 10:08:38;;;;;;;7.50;1.13;;;;;;;;;;5038181;28;20461;-46
2022/09/16 10:11:15;;;;;;;8.75;0.95;;;;;;;;;;5027542;28;20077;-46
2022/09/16 10:13:50;;;;;;;8.00;0.90;;;;;;;;;;5034597;28;20164;-45
2022/09/16 10:16:19;;;;;;;6.50;0.90;;;;;;;;;;5029090;28;20057;-46
2022/09/16 10:18:54;;;;;;;9.15;1.00;;;;;;;;;;5028722;28;20103;-45
2022/09/16 10:21:25;;;;;;;6.95;0.88;;;;;;;;;;5023211;28;20048;-46
2022/09/16 10:23:56;;;;;;;6.30;0.88;;;;;;;;;;5024051;28;20156;-46
2022/09/16 10:26:24;;;;;;;9.45;0.95;;;;;;;;;;5043844;28;20084;-47
2022/09/16 10:29:04;;;;;;;3.95;0.75;;;;;;;;;;5025628;28;20443;-45
2022/09/16 10:31:36;;;;;;;6.05;0.80;;;;;;;;;;5027240;28;20050;-44
2022/09/16 10:34:03;;;;;;;3.97;0.90;;;;;;;;;;5029850;28;20064;-45
2022/09/16 10:36:40;;;;;;;12.73;1.40;;;;;;;;;;5047291;28;20048;-45
2022/09/16 10:39:21;;;;;;;2.70;0.70;;;;;;;;;;5036345;28;20049;-45
2022/09/16 10:41:47;;;;;;;18.73;2.00;;;;;;;;;;5030476;28;20089;-46
2022/09/16 10:44:17;;;;;;;6.63;0.95;;;;;;;;;;5032177;28;20406;-47
2022/09/16 10:46:50;;;;;;;1.67;0.70;;;;;;;;;;5028370;28;20049;-48
2022/09/16 10:49:27;;;;;;;12.65;1.35;;;;;;;;;;5026401;28;20125;-47
2022/09/16 10:51:54;;;;;;;13.73;1.23;;;;;;;;;;5024304;28;20105;-46
2022/09/16 10:54:30;;;;;;;4.25;0.80;;;;;;;;;;5033707;28;20060;-46
2022/09/16 10:56:58;;;;;;;9.82;1.00;;;;;;;;;;5031218;28;20079;-46
2022/09/16 11:02:13;;;;;;;6.68;0.60;;;;;;;;;;5036763;28;20056;-46
2022/09/16 11:04:53;;;;;;;3.42;0.68;;;;;;;;;;5017946;28;20044;-45
2022/09/16 11:07:27;;;;;;;3.80;0.55;;;;;;;;;;5029840;28;20119;-46
2022/09/16 11:10:06;;;;;;;3.70;0.50;;;;;;;;;;5022035;28;20057;-46
2022/09/16 11:12:43;;;;;;;2.80;1.10;;;;;;;;;;5043045;28;20045;-46
2022/09/16 11:15:15;;;;;;;4.63;0.80;;;;;;;;;;5036385;28;20056;-48
2022/09/16 11:17:54;;;;;;;4.53;0.88;;;;;;;;;;5025097;28;20053;-46
2022/09/16 11:20:29;;;;;;;4.00;0.85;;;;;;;;;;5027453;28;20382;-46
2022/09/16 11:23:04;;;;;;;10.98;1.10;;;;;;;;;;5023273;28;20085;-46
2022/09/16 11:25:36;;;;;;;;;;;;;;;;;;5038774;28;20061;-46
2022/09/16 11:28:11;;;;;;;4.45;0.80;;;;;;;;;;5019606;28;19921;-46
2022/09/16 11:30:47;;;;;;;2.50;0.55;;;;;;;;;;5040415;28;20063;-47
2022/09/16 11:33:21;;;;;;;2.17;0.60;;;;;;;;;;5039813;28;20044;-46
2022/09/16 11:36:04;;;;;;;3.03;0.98;;;;;;;;;;5028357;28;20076;-45
2022/09/16 11:38:37;;;;;;;9.75;1.30;;;;;;;;;;5005969;28;20075;-44
2022/09/16 11:41:09;;;;;;;3.80;0.80;;;;;;;;;;5040881;28;20073;-44
2022/09/16 11:43:55;;;;;;;4.18;0.63;;;;;;;;;;5034165;28;20472;-45
2022/09/16 11:46:24;;;;;;;4.97;0.50;;;;;;;;;;5032377;28;20049;-44
2022/09/16 11:48:57;;;;;;;7.10;1.00;;;;;;;;;;5039175;28;20053;-44
2022/09/16 11:51:29;;;;;;;4.13;0.90;;;;;;;;;;5033799;28;20041;-46
2022/09/16 11:54:09;;;;;;;2.63;0.40;;;;;;;;;;5033974;28;20103;-45
2022/09/16 11:56:40;;;;;;;6.15;0.93;;;;;;;;;;5038626;28;20052;-44
2022/09/16 11:59:11;;;;;;;1.63;0.70;;;;;;;;;;5035396;28;20397;-46
2022/09/16 12:01:43;;;;;;;4.82;0.85;;;;;;;;;;5028901;28;20057;-44
2022/09/16 12:04:12;;;;;;;2.10;0.50;;;;;;;;;;5030323;28;20390;-46
2022/09/16 12:06:42;;;;;;;3.03;0.70;;;;;;;;;;5032982;28;20136;-44
2022/09/16 12:09:15;;;;;;;3.05;0.55;;;;;;;;;;5037627;28;20473;-47
2022/09/16 12:11:44;;;;;;;2.85;0.80;;;;;;;;;;5033607;28;20077;-46
2022/09/16 12:14:13;;;;;;;3.38;0.88;;;;;;;;;;5033936;28;20462;-45
2022/09/16 12:16:44;;;;;;;5.82;0.90;;;;;;;;;;5040006;28;20064;-47
2022/09/16 12:19:21;;;;;;;8.13;1.23;;;;;;;;;;5028391;28;20050;-45
2022/09/16 12:21:50;;;;;;;6.55;0.90;;;;;;;;;;5038974;28;20049;-45
2022/09/16 12:24:20;;;;;;;3.50;0.80;;;;;;;;;;5045714;28;20060;-45
2022/09/16 12:26:51;;;;;;;2.03;0.60;;;;;;;;;;5037617;28;20080;-45
2022/09/16 12:29:19;;;;;;;4.72;0.65;;;;;;;;;;5039520;28;20056;-45
2022/09/16 12:31:51;;;;;;;2.72;0.70;;;;;;;;;;5028591;28;20064;-45
2022/09/16 12:34:23;;;;;;;1.83;0.60;;;;;;;;;;5030980;28;20051;-45
2022/09/16 12:36:52;;;;;;;2.38;0.70;;;;;;;;;;5039888;28;20052;-45
2022/09/16 12:39:20;;;;;;;5.43;0.80;;;;;;;;;;5033675;28;20569;-46
2022/09/16 12:42:00;;;;;;;3.65;0.93;;;;;;;;;;5040318;28;20045;-46
2022/09/16 12:44:43;;;;;;;2.45;0.80;;;;;;;;;;5033538;28;20049;-45
2022/09/16 12:47:31;;;;;;;5.38;1.02;;;;;;;;;;5034614;28;20061;-45
2022/09/16 12:50:14;;;;;;;8.20;1.25;;;;;;;;;;5025583;28;20482;-45
2022/09/16 12:52:53;;;;;;;7.50;0.80;;;;;;;;;;5029910;28;20049;-44
2022/09/16 12:55:48;;;;;;;2.60;0.80;;;;;;;;;;5035706;28;20138;-46
2022/09/16 12:58:31;;;;;;;6.72;1.05;;;;;;;;;;4999849;28;20049;-46
2022/09/16 13:01:08;;;;;;;6.82;1.10;;;;;;;;;;5038208;28;20110;-45
2022/09/16 13:03:41;;;;;;;4.68;0.70;;;;;;;;;;5034311;28;20041;-46
2022/09/16 13:06:18;;;;;;;3.40;1.10;;;;;;;;;;5039323;28;20448;-44
2022/09/16 13:08:47;;;;;;;10.57;1.33;;;;;;;;;;5031905;28;20061;-46
2022/09/16 13:11:17;;;;;;;10.57;1.40;;;;;;;;;;5040701;28;20049;-45
2022/09/16 13:13:47;;;;;;;4.32;1.17;;;;;;;;;;5045833;28;20042;-46
2022/09/16 13:16:13;;;;;;;4.30;0.93;;;;;;;;;;5043291;28;20084;-47
2022/09/16 13:18:47;;;;;;;6.00;1.13;;;;;;;;;;5039175;28;20056;-47
2022/09/16 13:21:21;;;;;;;10.30;1.02;;;;;;;;;;5046263;28;20050;-46
2022/09/16 13:23:54;;;;;;;6.55;0.57;;;;;;;;;;5030970;28;20045;-47
2022/09/16 13:26:22;;;;;;;5.13;0.82;;;;;;;;;;5044229;28;20053;-45
2022/09/16 13:28:48;;;;;;;7.32;0.55;;;;;;;;;;5049053;28;20045;-45
2022/09/16 13:31:18;;;;;;;5.28;0.70;;;;;;;;;;5039072;28;20425;-43
2022/09/16 13:33:49;;;;;;;6.75;0.80;;;;;;;;;;5042930;28;20060;-45
2022/09/16 13:36:30;;;;;;;4.63;0.70;;;;;;;;;;5043943;28;20092;-44
2022/09/16 13:38:57;;;;;;;3.92;0.75;;;;;;;;;;5036698;28;20053;-44
2022/09/16 13:41:45;;;;;;;2.13;0.43;;;;;;;;;;5046108;28;20154;-45
2022/09/16 13:44:29;;;;;;;2.90;0.63;;;;;;;;;;5036461;28;20544;-46
2022/09/16 13:47:09;;;;;;;6.88;0.73;;;;;;;;;;5035027;28;20046;-46
2022/09/16 13:49:41;;;;;;;3.28;0.57;;;;;;;;;;5035150;28;20053;-47
2022/09/16 13:52:11;;;;;;;5.20;0.63;;;;;;;;;;5041412;28;20205;-47
2022/09/16 13:54:43;;;;;;;6.32;0.70;;;;;;;;;;5033355;28;20072;-46
2022/09/16 13:57:34;;;;;;;2.63;0.70;;;;;;;;;;5044999;28;20054;-47
2022/09/16 14:00:18;;;;;;;3.17;0.52;;;;;;;;;;5028949;28;20064;-48
2022/09/16 14:02:54;;;;;;;6.65;0.50;;;;;;;;;;5033290;28;20047;-50
2022/09/16 14:05:32;;;;;;;6.75;1.30;;;;;;;;;;5036435;28;20055;-50
2022/09/16 14:08:05;;;;;;;5.72;0.80;;;;;;;;;;5037431;28;20049;-46
2022/09/16 14:10:36;;;;;;;5.40;0.82;;;;;;;;;;5037113;28;20068;-49
2022/09/16 14:13:09;;;;;;;5.80;0.73;;;;;;;;;;5044473;28;20049;-49
2022/09/16 14:15:40;;;;;;;3.75;0.50;;;;;;;;;;5036516;28;20646;-46
2022/09/16 14:18:06;;;;;;;1.75;0.52;;;;;;;;;;5035002;28;20065;-45
2022/09/16 14:20:44;;;;;;;4.50;0.80;;;;;;;;;;5047287;28;20802;-45
2022/09/16 14:23:16;;;;;;;2.67;0.60;;;;;;;;;;5043025;28;20049;-47
2022/09/16 14:25:42;;;;;;;2.63;0.60;;;;;;;;;;5045528;28;20081;-46
2022/09/16 14:28:18;;;;;;;2.30;0.38;;;;;;;;;;5031552;28;20054;-47
2022/09/16 14:30:47;;;;;;;7.30;0.85;;;;;;;;;;5042355;28;20383;-47
2022/09/16 14:33:16;;;;;;;6.40;0.50;;;;;;;;;;5032428;28;20045;-47
2022/09/16 14:35:46;;;;;;;3.15;0.60;;;;;;;;;;5045443;28;20080;-47
2022/09/16 14:38:15;;;;;;;8.13;0.88;;;;;;;;;;5043268;28;20050;-47
2022/09/16 14:40:41;;;;;;;8.80;0.98;;;;;;;;;;5044745;28;20049;-45
2022/09/16 14:43:11;;;;;;;4.18;0.70;;;;;;;;;;5034586;28;20053;-44
2022/09/16 14:45:38;;;;;;;1.88;0.82;;;;;;;;;;5032593;28;20462;-45
2022/09/16 14:48:07;;;;;;;4.38;0.60;;;;;;;;;;5033950;28;20056;-48
2022/09/16 14:50:37;;;;;;;3.70;0.80;;;;;;;;;;5034868;28;20137;-45
2022/09/16 14:53:07;;;;;;;3.30;0.57;;;;;;;;;;5037850;28;20058;-45
2022/09/16 14:55:36;;;;;;;6.45;0.57;;;;;;;;;;5034941;28;20404;-46
2022/09/16 14:58:04;;;;;;;2.13;1.08;;;;;;;;;;5033840;28;20053;-46
2022/09/16 15:00:36;;;;;;;2.70;0.52;;;;;;;;;;5043507;28;20064;-49
2022/09/16 15:03:09;;;;;;;4.10;0.98;;;;;;;;;;5030361;28;20049;-45
2022/09/16 15:05:37;;;;;;;1.65;0.63;;;;;;;;;;5033542;28;20053;-46
2022/09/16 15:08:14;;;;;;;2.72;0.43;;;;;;;;;;5022935;28;20058;-48
2022/09/16 15:10:43;;;;;;;3.17;0.70;;;;;;;;;;5018770;28;20053;-46
2022/09/16 15:13:10;;;;;;;1.50;0.47;;;;;;;;;;5023425;28;20077;-46
2022/09/16 15:15:45;;;;;;;1.88;0.60;;;;;;;;;;5018307;28;20352;-48